sensor_id;sensor_type;location;lat;lon;timestamp;P1;durP1;ratioP1;P2;durP2;ratioP2
60054;SDS011;45930;53.514;55.904;2022-09-03T00:01:09;37.05;;;32.97;;
60054;SDS011;45930;53.514;55.904;2022-09-03T00:03:26;36.13;;;32.35;;
60054;SDS011;45930;53.514;55.904;2022-09-03T00:05:49;37.47;;;33.53;;
60054;SDS011;45930;53.514;55.904;2022-09-03T00:09:16;36.50;;;32.72;;
60054;SDS011;45930;53.514;55.904;2022-09-03T00:10:20;36.97;;;33.08;;
60054;SDS011;45930;53.514;55.904;2022-09-03T00:11:53;36.25;;;32.35;;
60054;SDS011;45930;53.514;55.904;2022-09-03T00:12:58;37.00;;;32.95;;
60054;SDS011;45930;53.514;55.904;2022-09-03T00:14:03;36.47;;;32.72;;
60054;SDS011;45930;53.514;55.904;2022-09-03T00:16:16;37.85;;;33.92;;
60054;SDS011;45930;53.514;55.904;2022-09-03T00:17:21;38.58;;;34.70;;
60054;SDS011;45930;53.514;55.904;2022-09-03T00:18:31;36.00;;;32.10;;
60054;SDS011;45930;53.514;55.904;2022-09-03T00:19:36;36.60;;;32.67;;
60054;SDS011;45930;53.514;55.904;2022-09-03T00:20:46;37.20;;;33.35;;
60054;SDS011;45930;53.514;55.904;2022-09-03T00:21:59;37.60;;;33.43;;
60054;SDS011;45930;53.514;55.904;2022-09-03T00:23:07;37.85;;;33.92;;
60054;SDS011;45930;53.514;55.904;2022-09-03T00:24:14;37.17;;;33.28;;
60054;SDS011;45930;53.514;55.904;2022-09-03T00:25:22;35.97;;;32.28;;
60054;SDS011;45930;53.514;55.904;2022-09-03T00:26:28;36.15;;;32.25;;
60054;SDS011;45930;53.514;55.904;2022-09-03T00:27:36;38.28;;;34.20;;
60054;SDS011;45930;53.514;55.904;2022-09-03T00:30:27;36.90;;;33.05;;
60054;SDS011;45930;53.514;55.904;2022-09-03T00:32:58;37.70;;;33.80;;
60054;SDS011;45930;53.514;55.904;2022-09-03T00:34:14;36.67;;;32.85;;
60054;SDS011;45930;53.514;55.904;2022-09-03T00:35:28;35.75;;;32.25;;
60054;SDS011;45930;53.514;55.904;2022-09-03T00:36:45;36.30;;;32.58;;
60054;SDS011;45930;53.514;55.904;2022-09-03T00:37:46;37.35;;;33.42;;
60054;SDS011;45930;53.514;55.904;2022-09-03T00:38:48;37.38;;;33.50;;
60054;SDS011;45930;53.514;55.904;2022-09-03T00:39:49;38.05;;;34.05;;
60054;SDS011;45930;53.514;55.904;2022-09-03T00:41:00;36.42;;;32.60;;
60054;SDS011;45930;53.514;55.904;2022-09-03T00:51:35;37.65;;;33.80;;
60054;SDS011;45930;53.514;55.904;2022-09-03T00:53:58;36.78;;;33.03;;
60054;SDS011;45930;53.514;55.904;2022-09-03T01:00:30;38.38;;;34.08;;
60054;SDS011;45930;53.514;55.904;2022-09-03T01:03:09;37.60;;;33.65;;
60054;SDS011;45930;53.514;55.904;2022-09-03T01:07:15;37.78;;;33.72;;
60054;SDS011;45930;53.514;55.904;2022-09-03T01:09:47;37.25;;;33.45;;
60054;SDS011;45930;53.514;55.904;2022-09-03T01:10:55;38.67;;;34.78;;
60054;SDS011;45930;53.514;55.904;2022-09-03T01:13:40;38.83;;;34.78;;
60054;SDS011;45930;53.514;55.904;2022-09-03T01:24:26;39.17;;;35.28;;
60054;SDS011;45930;53.514;55.904;2022-09-03T01:30:16;39.15;;;34.90;;
60054;SDS011;45930;53.514;55.904;2022-09-03T01:31:21;37.45;;;33.38;;
60054;SDS011;45930;53.514;55.904;2022-09-03T01:45:23;39.97;;;35.78;;
60054;SDS011;45930;53.514;55.904;2022-09-03T01:46:32;39.53;;;35.47;;
60054;SDS011;45930;53.514;55.904;2022-09-03T01:48:59;37.13;;;33.17;;
60054;SDS011;45930;53.514;55.904;2022-09-03T01:50:09;37.83;;;33.72;;
60054;SDS011;45930;53.514;55.904;2022-09-03T01:51:28;38.30;;;34.30;;
60054;SDS011;45930;53.514;55.904;2022-09-03T01:59:08;42.25;;;37.65;;
60054;SDS011;45930;53.514;55.904;2022-09-03T02:00:18;41.72;;;36.95;;
60054;SDS011;45930;53.514;55.904;2022-09-03T02:02:02;40.85;;;36.55;;
60054;SDS011;45930;53.514;55.904;2022-09-03T02:03:00;40.58;;;36.22;;
60054;SDS011;45930;53.514;55.904;2022-09-03T02:04:18;41.67;;;37.10;;
60054;SDS011;45930;53.514;55.904;2022-09-03T02:05:23;41.33;;;36.97;;
60054;SDS011;45930;53.514;55.904;2022-09-03T02:06:26;40.95;;;36.88;;
60054;SDS011;45930;53.514;55.904;2022-09-03T02:07:32;39.55;;;35.20;;
60054;SDS011;45930;53.514;55.904;2022-09-03T02:08:35;40.70;;;36.25;;
60054;SDS011;45930;53.514;55.904;2022-09-03T02:09:36;40.63;;;36.33;;
60054;SDS011;45930;53.514;55.904;2022-09-03T02:10:38;40.42;;;36.22;;
60054;SDS011;45930;53.514;55.904;2022-09-03T02:11:52;40.33;;;36.03;;
60054;SDS011;45930;53.514;55.904;2022-09-03T02:14:19;39.38;;;35.13;;
60054;SDS011;45930;53.514;55.904;2022-09-03T02:15:21;43.28;;;36.35;;
60054;SDS011;45930;53.514;55.904;2022-09-03T02:16:27;39.10;;;35.03;;
60054;SDS011;45930;53.514;55.904;2022-09-03T02:17:32;40.05;;;35.13;;
60054;SDS011;45930;53.514;55.904;2022-09-03T02:18:39;39.13;;;34.92;;
60054;SDS011;45930;53.514;55.904;2022-09-03T02:19:45;42.47;;;35.10;;
60054;SDS011;45930;53.514;55.904;2022-09-03T02:20:46;40.42;;;35.97;;
60054;SDS011;45930;53.514;55.904;2022-09-03T02:21:49;39.35;;;35.25;;
60054;SDS011;45930;53.514;55.904;2022-09-03T02:22:52;38.88;;;34.70;;
60054;SDS011;45930;53.514;55.904;2022-09-03T02:23:53;39.28;;;33.78;;
60054;SDS011;45930;53.514;55.904;2022-09-03T02:24:54;38.92;;;34.75;;
60054;SDS011;45930;53.514;55.904;2022-09-03T02:25:56;38.33;;;34.05;;
60054;SDS011;45930;53.514;55.904;2022-09-03T02:26:58;40.20;;;36.10;;
60054;SDS011;45930;53.514;55.904;2022-09-03T02:28:00;37.90;;;33.85;;
60054;SDS011;45930;53.514;55.904;2022-09-03T02:29:02;38.25;;;34.35;;
60054;SDS011;45930;53.514;55.904;2022-09-03T02:30:06;37.95;;;34.05;;
60054;SDS011;45930;53.514;55.904;2022-09-03T02:31:08;39.33;;;35.00;;
60054;SDS011;45930;53.514;55.904;2022-09-03T02:32:08;39.15;;;35.20;;
60054;SDS011;45930;53.514;55.904;2022-09-03T02:33:09;40.10;;;35.78;;
60054;SDS011;45930;53.514;55.904;2022-09-03T02:34:10;38.00;;;33.97;;
60054;SDS011;45930;53.514;55.904;2022-09-03T02:35:11;38.50;;;34.55;;
60054;SDS011;45930;53.514;55.904;2022-09-03T02:36:13;39.53;;;34.55;;
60054;SDS011;45930;53.514;55.904;2022-09-03T02:37:18;38.17;;;32.63;;
60054;SDS011;45930;53.514;55.904;2022-09-03T02:38:20;38.58;;;34.47;;
60054;SDS011;45930;53.514;55.904;2022-09-03T02:39:24;37.83;;;33.78;;
60054;SDS011;45930;53.514;55.904;2022-09-03T02:40:28;39.10;;;34.83;;
60054;SDS011;45930;53.514;55.904;2022-09-03T02:41:28;37.30;;;33.47;;
60054;SDS011;45930;53.514;55.904;2022-09-03T02:42:31;38.97;;;34.80;;
60054;SDS011;45930;53.514;55.904;2022-09-03T02:43:43;38.95;;;34.72;;
60054;SDS011;45930;53.514;55.904;2022-09-03T02:46:38;38.03;;;34.13;;
60054;SDS011;45930;53.514;55.904;2022-09-03T02:47:42;38.10;;;34.50;;
60054;SDS011;45930;53.514;55.904;2022-09-03T02:48:45;38.97;;;34.97;;
60054;SDS011;45930;53.514;55.904;2022-09-03T02:49:47;37.95;;;33.97;;
60054;SDS011;45930;53.514;55.904;2022-09-03T02:50:48;40.13;;;34.88;;
60054;SDS011;45930;53.514;55.904;2022-09-03T02:51:49;37.92;;;33.83;;
60054;SDS011;45930;53.514;55.904;2022-09-03T02:52:50;38.63;;;34.47;;
60054;SDS011;45930;53.514;55.904;2022-09-03T02:53:51;38.78;;;34.65;;
60054;SDS011;45930;53.514;55.904;2022-09-03T02:54:51;38.80;;;33.60;;
60054;SDS011;45930;53.514;55.904;2022-09-03T02:55:52;39.58;;;33.47;;
60054;SDS011;45930;53.514;55.904;2022-09-03T02:56:58;38.40;;;34.42;;
60054;SDS011;45930;53.514;55.904;2022-09-03T02:57:59;37.80;;;33.95;;
60054;SDS011;45930;53.514;55.904;2022-09-03T02:59:00;38.17;;;34.20;;
60054;SDS011;45930;53.514;55.904;2022-09-03T03:00:02;38.88;;;34.85;;
60054;SDS011;45930;53.514;55.904;2022-09-03T03:01:04;39.65;;;35.45;;
60054;SDS011;45930;53.514;55.904;2022-09-03T03:02:05;41.35;;;35.55;;
60054;SDS011;45930;53.514;55.904;2022-09-03T03:03:06;43.17;;;35.13;;
60054;SDS011;45930;53.514;55.904;2022-09-03T03:04:07;38.40;;;34.15;;
60054;SDS011;45930;53.514;55.904;2022-09-03T03:05:08;39.55;;;34.45;;
60054;SDS011;45930;53.514;55.904;2022-09-03T03:06:17;38.92;;;34.55;;
60054;SDS011;45930;53.514;55.904;2022-09-03T03:07:21;38.55;;;34.47;;
60054;SDS011;45930;53.514;55.904;2022-09-03T03:08:24;36.83;;;32.83;;
60054;SDS011;45930;53.514;55.904;2022-09-03T03:09:26;38.13;;;34.00;;
60054;SDS011;45930;53.514;55.904;2022-09-03T03:10:28;38.15;;;34.00;;
60054;SDS011;45930;53.514;55.904;2022-09-03T03:11:29;38.78;;;34.58;;
60054;SDS011;45930;53.514;55.904;2022-09-03T03:12:29;36.85;;;32.90;;
60054;SDS011;45930;53.514;55.904;2022-09-03T03:13:30;40.05;;;36.03;;
60054;SDS011;45930;53.514;55.904;2022-09-03T03:14:31;39.25;;;35.10;;
60054;SDS011;45930;53.514;55.904;2022-09-03T03:15:32;38.97;;;34.95;;
60054;SDS011;45930;53.514;55.904;2022-09-03T03:16:33;39.00;;;34.75;;
60054;SDS011;45930;53.514;55.904;2022-09-03T03:17:34;40.67;;;36.25;;
60054;SDS011;45930;53.514;55.904;2022-09-03T03:18:35;42.60;;;38.25;;
60054;SDS011;45930;53.514;55.904;2022-09-03T03:19:35;41.70;;;36.78;;
60054;SDS011;45930;53.514;55.904;2022-09-03T03:20:37;42.05;;;37.58;;
60054;SDS011;45930;53.514;55.904;2022-09-03T03:21:38;42.55;;;37.92;;
60054;SDS011;45930;53.514;55.904;2022-09-03T03:22:39;44.05;;;38.05;;
60054;SDS011;45930;53.514;55.904;2022-09-03T03:23:40;42.17;;;37.75;;
60054;SDS011;45930;53.514;55.904;2022-09-03T03:24:41;44.30;;;38.22;;
60054;SDS011;45930;53.514;55.904;2022-09-03T03:25:42;45.53;;;38.53;;
60054;SDS011;45930;53.514;55.904;2022-09-03T03:26:43;43.38;;;38.67;;
60054;SDS011;45930;53.514;55.904;2022-09-03T03:27:44;45.90;;;39.80;;
60054;SDS011;45930;53.514;55.904;2022-09-03T03:28:46;41.92;;;37.60;;
60054;SDS011;45930;53.514;55.904;2022-09-03T03:29:48;43.70;;;36.85;;
60054;SDS011;45930;53.514;55.904;2022-09-03T03:30:49;40.53;;;36.33;;
60054;SDS011;45930;53.514;55.904;2022-09-03T03:31:51;39.58;;;35.38;;
60054;SDS011;45930;53.514;55.904;2022-09-03T03:32:52;39.80;;;35.70;;
60054;SDS011;45930;53.514;55.904;2022-09-03T03:33:55;40.22;;;35.25;;
60054;SDS011;45930;53.514;55.904;2022-09-03T03:34:56;37.50;;;33.55;;
60054;SDS011;45930;53.514;55.904;2022-09-03T03:35:57;38.97;;;34.83;;
60054;SDS011;45930;53.514;55.904;2022-09-03T03:36:58;39.05;;;34.95;;
60054;SDS011;45930;53.514;55.904;2022-09-03T03:37:59;37.10;;;32.72;;
60054;SDS011;45930;53.514;55.904;2022-09-03T03:39:00;37.47;;;33.40;;
60054;SDS011;45930;53.514;55.904;2022-09-03T03:40:02;37.95;;;33.72;;
60054;SDS011;45930;53.514;55.904;2022-09-03T03:41:17;38.22;;;33.03;;
60054;SDS011;45930;53.514;55.904;2022-09-03T03:42:21;36.72;;;32.78;;
60054;SDS011;45930;53.514;55.904;2022-09-03T03:43:22;40.22;;;33.25;;
60054;SDS011;45930;53.514;55.904;2022-09-03T03:44:22;36.85;;;32.95;;
60054;SDS011;45930;53.514;55.904;2022-09-03T03:45:23;36.25;;;32.45;;
60054;SDS011;45930;53.514;55.904;2022-09-03T03:46:27;37.13;;;33.15;;
60054;SDS011;45930;53.514;55.904;2022-09-03T03:47:29;35.95;;;32.17;;
60054;SDS011;45930;53.514;55.904;2022-09-03T03:48:30;37.70;;;33.72;;
60054;SDS011;45930;53.514;55.904;2022-09-03T03:49:32;37.15;;;33.17;;
60054;SDS011;45930;53.514;55.904;2022-09-03T03:50:33;36.95;;;33.05;;
60054;SDS011;45930;53.514;55.904;2022-09-03T03:51:34;35.88;;;32.17;;
60054;SDS011;45930;53.514;55.904;2022-09-03T03:52:35;38.55;;;34.53;;
60054;SDS011;45930;53.514;55.904;2022-09-03T03:53:37;35.67;;;31.23;;
60054;SDS011;45930;53.514;55.904;2022-09-03T03:54:38;36.13;;;32.38;;
60054;SDS011;45930;53.514;55.904;2022-09-03T03:55:38;36.50;;;32.70;;
60054;SDS011;45930;53.514;55.904;2022-09-03T03:56:39;37.63;;;33.80;;
60054;SDS011;45930;53.514;55.904;2022-09-03T03:57:40;37.58;;;33.70;;
60054;SDS011;45930;53.514;55.904;2022-09-03T03:58:41;37.25;;;33.28;;
60054;SDS011;45930;53.514;55.904;2022-09-03T03:59:43;36.47;;;32.53;;
60054;SDS011;45930;53.514;55.904;2022-09-03T04:00:44;37.50;;;32.58;;
60054;SDS011;45930;53.514;55.904;2022-09-03T04:01:44;35.75;;;32.03;;
60054;SDS011;45930;53.514;55.904;2022-09-03T04:02:45;36.33;;;32.55;;
60054;SDS011;45930;53.514;55.904;2022-09-03T04:03:46;36.80;;;32.58;;
60054;SDS011;45930;53.514;55.904;2022-09-03T04:04:47;35.45;;;31.00;;
60054;SDS011;45930;53.514;55.904;2022-09-03T04:05:58;37.30;;;33.25;;
60054;SDS011;45930;53.514;55.904;2022-09-03T04:06:59;36.20;;;32.60;;
60054;SDS011;45930;53.514;55.904;2022-09-03T04:08:00;37.63;;;33.53;;
60054;SDS011;45930;53.514;55.904;2022-09-03T04:09:02;35.22;;;31.48;;
60054;SDS011;45930;53.514;55.904;2022-09-03T04:10:03;36.47;;;32.33;;
60054;SDS011;45930;53.514;55.904;2022-09-03T04:11:04;34.53;;;31.02;;
60054;SDS011;45930;53.514;55.904;2022-09-03T04:12:07;37.42;;;32.40;;
60054;SDS011;45930;53.514;55.904;2022-09-03T04:13:08;36.22;;;32.42;;
60054;SDS011;45930;53.514;55.904;2022-09-03T04:14:08;36.95;;;31.55;;
60054;SDS011;45930;53.514;55.904;2022-09-03T04:15:09;35.45;;;30.90;;
60054;SDS011;45930;53.514;55.904;2022-09-03T04:16:11;35.58;;;31.05;;
60054;SDS011;45930;53.514;55.904;2022-09-03T04:17:14;34.55;;;30.88;;
60054;SDS011;45930;53.514;55.904;2022-09-03T04:18:14;34.67;;;30.98;;
60054;SDS011;45930;53.514;55.904;2022-09-03T04:19:16;36.72;;;30.30;;
60054;SDS011;45930;53.514;55.904;2022-09-03T04:20:17;34.47;;;30.80;;
60054;SDS011;45930;53.514;55.904;2022-09-03T04:21:18;33.22;;;29.73;;
60054;SDS011;45930;53.514;55.904;2022-09-03T04:22:21;36.17;;;32.28;;
60054;SDS011;45930;53.514;55.904;2022-09-03T04:23:22;35.10;;;31.35;;
60054;SDS011;45930;53.514;55.904;2022-09-03T04:24:22;35.47;;;31.10;;
60054;SDS011;45930;53.514;55.904;2022-09-03T04:25:23;34.20;;;30.67;;
60054;SDS011;45930;53.514;55.904;2022-09-03T04:26:25;34.35;;;30.65;;
60054;SDS011;45930;53.514;55.904;2022-09-03T04:27:30;35.28;;;31.48;;
60054;SDS011;45930;53.514;55.904;2022-09-03T04:28:31;36.35;;;32.53;;
60054;SDS011;45930;53.514;55.904;2022-09-03T04:29:32;36.50;;;32.50;;
60054;SDS011;45930;53.514;55.904;2022-09-03T04:30:35;35.17;;;31.50;;
60054;SDS011;45930;53.514;55.904;2022-09-03T04:31:37;38.30;;;32.70;;
60054;SDS011;45930;53.514;55.904;2022-09-03T04:32:38;37.80;;;33.97;;
60054;SDS011;45930;53.514;55.904;2022-09-03T04:33:55;38.90;;;34.70;;
60054;SDS011;45930;53.514;55.904;2022-09-03T04:34:56;41.28;;;36.53;;
60054;SDS011;45930;53.514;55.904;2022-09-03T04:36:01;38.10;;;32.25;;
60054;SDS011;45930;53.514;55.904;2022-09-03T04:37:06;42.72;;;37.03;;
60054;SDS011;45930;53.514;55.904;2022-09-03T04:38:08;42.88;;;36.15;;
60054;SDS011;45930;53.514;55.904;2022-09-03T04:39:10;43.55;;;36.40;;
60054;SDS011;45930;53.514;55.904;2022-09-03T04:40:11;39.40;;;35.38;;
60054;SDS011;45930;53.514;55.904;2022-09-03T04:41:14;48.83;;;36.72;;
60054;SDS011;45930;53.514;55.904;2022-09-03T04:42:17;40.50;;;35.85;;
60054;SDS011;45930;53.514;55.904;2022-09-03T04:43:18;39.38;;;35.13;;
60054;SDS011;45930;53.514;55.904;2022-09-03T04:44:18;40.22;;;35.97;;
60054;SDS011;45930;53.514;55.904;2022-09-03T04:45:19;38.92;;;34.40;;
60054;SDS011;45930;53.514;55.904;2022-09-03T04:46:20;39.90;;;35.55;;
60054;SDS011;45930;53.514;55.904;2022-09-03T04:47:25;39.20;;;35.13;;
60054;SDS011;45930;53.514;55.904;2022-09-03T04:48:27;40.03;;;36.13;;
60054;SDS011;45930;53.514;55.904;2022-09-03T04:49:29;42.00;;;36.88;;
60054;SDS011;45930;53.514;55.904;2022-09-03T04:50:31;39.20;;;35.10;;
60054;SDS011;45930;53.514;55.904;2022-09-03T04:51:32;36.65;;;32.03;;
60054;SDS011;45930;53.514;55.904;2022-09-03T04:52:33;37.95;;;33.95;;
60054;SDS011;45930;53.514;55.904;2022-09-03T04:53:34;37.10;;;33.20;;
60054;SDS011;45930;53.514;55.904;2022-09-03T04:54:36;37.47;;;33.85;;
60054;SDS011;45930;53.514;55.904;2022-09-03T04:55:37;36.83;;;33.10;;
60054;SDS011;45930;53.514;55.904;2022-09-03T04:56:38;36.60;;;33.03;;
60054;SDS011;45930;53.514;55.904;2022-09-03T04:57:39;34.15;;;30.60;;
60054;SDS011;45930;53.514;55.904;2022-09-03T04:58:42;35.92;;;32.22;;
60054;SDS011;45930;53.514;55.904;2022-09-03T04:59:43;35.35;;;31.63;;
60054;SDS011;45930;53.514;55.904;2022-09-03T05:00:44;35.67;;;31.75;;
60054;SDS011;45930;53.514;55.904;2022-09-03T05:01:44;35.97;;;32.20;;
60054;SDS011;45930;53.514;55.904;2022-09-03T05:02:45;35.03;;;30.70;;
60054;SDS011;45930;53.514;55.904;2022-09-03T05:03:48;34.92;;;31.27;;
60054;SDS011;45930;53.514;55.904;2022-09-03T05:04:51;36.67;;;32.58;;
60054;SDS011;45930;53.514;55.904;2022-09-03T05:05:54;35.15;;;31.45;;
60054;SDS011;45930;53.514;55.904;2022-09-03T05:06:55;35.08;;;31.52;;
60054;SDS011;45930;53.514;55.904;2022-09-03T05:07:59;35.33;;;31.52;;
60054;SDS011;45930;53.514;55.904;2022-09-03T05:09:03;33.90;;;30.35;;
60054;SDS011;45930;53.514;55.904;2022-09-03T05:10:05;32.55;;;29.02;;
60054;SDS011;45930;53.514;55.904;2022-09-03T05:11:07;33.58;;;29.98;;
60054;SDS011;45930;53.514;55.904;2022-09-03T05:12:09;34.83;;;31.27;;
60054;SDS011;45930;53.514;55.904;2022-09-03T05:13:10;37.03;;;29.95;;
60054;SDS011;45930;53.514;55.904;2022-09-03T05:14:10;33.28;;;29.73;;
60054;SDS011;45930;53.514;55.904;2022-09-03T05:15:12;34.30;;;30.65;;
60054;SDS011;45930;53.514;55.904;2022-09-03T05:16:13;33.78;;;30.27;;
60054;SDS011;45930;53.514;55.904;2022-09-03T05:17:14;33.13;;;29.70;;
60054;SDS011;45930;53.514;55.904;2022-09-03T05:18:15;33.83;;;28.60;;
60054;SDS011;45930;53.514;55.904;2022-09-03T05:19:16;32.45;;;29.10;;
60054;SDS011;45930;53.514;55.904;2022-09-03T05:20:17;42.00;;;30.52;;
60054;SDS011;45930;53.514;55.904;2022-09-03T05:21:18;58.03;;;32.15;;
60054;SDS011;45930;53.514;55.904;2022-09-03T05:22:19;32.28;;;29.08;;
60054;SDS011;45930;53.514;55.904;2022-09-03T05:23:22;34.38;;;30.52;;
60054;SDS011;45930;53.514;55.904;2022-09-03T05:24:24;32.63;;;29.17;;
60054;SDS011;45930;53.514;55.904;2022-09-03T05:25:24;32.10;;;28.80;;
60054;SDS011;45930;53.514;55.904;2022-09-03T05:26:26;31.08;;;26.38;;
60054;SDS011;45930;53.514;55.904;2022-09-03T05:27:31;32.70;;;29.30;;
60054;SDS011;45930;53.514;55.904;2022-09-03T05:28:32;32.42;;;29.13;;
60054;SDS011;45930;53.514;55.904;2022-09-03T05:29:33;32.45;;;28.92;;
60054;SDS011;45930;53.514;55.904;2022-09-03T05:30:34;33.33;;;29.77;;
60054;SDS011;45930;53.514;55.904;2022-09-03T05:31:36;33.10;;;29.33;;
60054;SDS011;45930;53.514;55.904;2022-09-03T05:32:38;31.10;;;27.73;;
60054;SDS011;45930;53.514;55.904;2022-09-03T05:33:41;32.97;;;29.42;;
60054;SDS011;45930;53.514;55.904;2022-09-03T05:34:43;34.63;;;29.23;;
60054;SDS011;45930;53.514;55.904;2022-09-03T05:35:44;29.80;;;26.48;;
60054;SDS011;45930;53.514;55.904;2022-09-03T05:36:45;29.52;;;26.05;;
60054;SDS011;45930;53.514;55.904;2022-09-03T05:37:49;31.33;;;27.77;;
60054;SDS011;45930;53.514;55.904;2022-09-03T05:38:50;32.70;;;29.20;;
60054;SDS011;45930;53.514;55.904;2022-09-03T05:39:55;30.92;;;27.45;;
60054;SDS011;45930;53.514;55.904;2022-09-03T05:40:59;32.60;;;29.13;;
60054;SDS011;45930;53.514;55.904;2022-09-03T05:42:00;31.95;;;28.13;;
60054;SDS011;45930;53.514;55.904;2022-09-03T05:43:01;31.02;;;27.80;;
60054;SDS011;45930;53.514;55.904;2022-09-03T05:44:02;36.35;;;29.23;;
60054;SDS011;45930;53.514;55.904;2022-09-03T05:45:08;33.08;;;27.75;;
60054;SDS011;45930;53.514;55.904;2022-09-03T05:46:10;32.35;;;29.05;;
60054;SDS011;45930;53.514;55.904;2022-09-03T05:47:13;32.20;;;28.70;;
60054;SDS011;45930;53.514;55.904;2022-09-03T05:48:15;30.50;;;26.95;;
60054;SDS011;45930;53.514;55.904;2022-09-03T05:49:16;29.17;;;25.50;;
60054;SDS011;45930;53.514;55.904;2022-09-03T05:50:17;29.50;;;25.88;;
60054;SDS011;45930;53.514;55.904;2022-09-03T05:51:18;30.23;;;27.13;;
60054;SDS011;45930;53.514;55.904;2022-09-03T05:52:19;29.50;;;26.02;;
60054;SDS011;45930;53.514;55.904;2022-09-03T05:53:21;28.95;;;25.33;;
60054;SDS011;45930;53.514;55.904;2022-09-03T05:54:22;29.92;;;25.52;;
60054;SDS011;45930;53.514;55.904;2022-09-03T05:55:23;30.27;;;25.05;;
60054;SDS011;45930;53.514;55.904;2022-09-03T05:56:24;27.67;;;24.75;;
60054;SDS011;45930;53.514;55.904;2022-09-03T05:57:26;27.33;;;22.02;;
60054;SDS011;45930;53.514;55.904;2022-09-03T05:58:29;26.17;;;23.38;;
60054;SDS011;45930;53.514;55.904;2022-09-03T05:59:31;25.67;;;22.90;;
60054;SDS011;45930;53.514;55.904;2022-09-03T06:00:32;26.48;;;23.02;;
60054;SDS011;45930;53.514;55.904;2022-09-03T06:01:33;25.63;;;22.95;;
60054;SDS011;45930;53.514;55.904;2022-09-03T06:02:36;25.98;;;23.33;;
60054;SDS011;45930;53.514;55.904;2022-09-03T06:03:36;27.65;;;24.40;;
60054;SDS011;45930;53.514;55.904;2022-09-03T06:04:37;26.70;;;23.90;;
60054;SDS011;45930;53.514;55.904;2022-09-03T06:05:38;25.35;;;22.88;;
60054;SDS011;45930;53.514;55.904;2022-09-03T06:06:40;26.42;;;23.08;;
60054;SDS011;45930;53.514;55.904;2022-09-03T06:07:42;29.73;;;21.73;;
60054;SDS011;45930;53.514;55.904;2022-09-03T06:08:43;23.63;;;21.13;;
60054;SDS011;45930;53.514;55.904;2022-09-03T06:09:44;28.00;;;21.70;;
60054;SDS011;45930;53.514;55.904;2022-09-03T06:10:45;25.30;;;22.58;;
60054;SDS011;45930;53.514;55.904;2022-09-03T06:11:46;26.23;;;23.45;;
60054;SDS011;45930;53.514;55.904;2022-09-03T06:12:50;25.50;;;22.60;;
60054;SDS011;45930;53.514;55.904;2022-09-03T06:13:51;25.52;;;22.58;;
60054;SDS011;45930;53.514;55.904;2022-09-03T06:14:52;23.60;;;21.10;;
60054;SDS011;45930;53.514;55.904;2022-09-03T06:15:56;23.23;;;20.85;;
60054;SDS011;45930;53.514;55.904;2022-09-03T06:16:58;24.42;;;22.02;;
60054;SDS011;45930;53.514;55.904;2022-09-03T06:17:58;26.73;;;23.10;;
60054;SDS011;45930;53.514;55.904;2022-09-03T06:19:02;25.13;;;22.50;;
60054;SDS011;45930;53.514;55.904;2022-09-03T06:20:07;21.83;;;19.25;;
60054;SDS011;45930;53.514;55.904;2022-09-03T06:21:08;21.02;;;18.60;;
60054;SDS011;45930;53.514;55.904;2022-09-03T06:22:09;19.02;;;16.95;;
60054;SDS011;45930;53.514;55.904;2022-09-03T06:23:10;22.15;;;18.58;;
60054;SDS011;45930;53.514;55.904;2022-09-03T06:24:12;20.52;;;18.50;;
60054;SDS011;45930;53.514;55.904;2022-09-03T06:25:14;25.40;;;20.88;;
60054;SDS011;45930;53.514;55.904;2022-09-03T06:26:15;22.77;;;18.45;;
60054;SDS011;45930;53.514;55.904;2022-09-03T06:27:17;17.63;;;15.85;;
60054;SDS011;45930;53.514;55.904;2022-09-03T06:28:20;19.98;;;17.15;;
60054;SDS011;45930;53.514;55.904;2022-09-03T06:29:21;16.73;;;15.07;;
60054;SDS011;45930;53.514;55.904;2022-09-03T06:30:22;18.85;;;16.13;;
60054;SDS011;45930;53.514;55.904;2022-09-03T06:31:23;18.60;;;15.60;;
60054;SDS011;45930;53.514;55.904;2022-09-03T06:32:24;15.30;;;13.70;;
60054;SDS011;45930;53.514;55.904;2022-09-03T06:33:25;18.63;;;15.25;;
60054;SDS011;45930;53.514;55.904;2022-09-03T06:34:26;16.58;;;14.90;;
60054;SDS011;45930;53.514;55.904;2022-09-03T06:35:27;21.77;;;16.00;;
60054;SDS011;45930;53.514;55.904;2022-09-03T06:36:28;19.58;;;15.70;;
60054;SDS011;45930;53.514;55.904;2022-09-03T06:37:29;57.53;;;17.48;;
60054;SDS011;45930;53.514;55.904;2022-09-03T06:38:30;17.90;;;15.45;;
60054;SDS011;45930;53.514;55.904;2022-09-03T06:39:34;17.67;;;15.70;;
60054;SDS011;45930;53.514;55.904;2022-09-03T06:40:35;17.13;;;15.38;;
60054;SDS011;45930;53.514;55.904;2022-09-03T06:41:36;17.65;;;15.80;;
60054;SDS011;45930;53.514;55.904;2022-09-03T06:42:40;17.95;;;15.60;;
60054;SDS011;45930;53.514;55.904;2022-09-03T06:43:41;18.08;;;15.93;;
60054;SDS011;45930;53.514;55.904;2022-09-03T06:44:42;16.73;;;14.98;;
60054;SDS011;45930;53.514;55.904;2022-09-03T06:45:51;17.02;;;15.20;;
60054;SDS011;45930;53.514;55.904;2022-09-03T06:46:58;17.23;;;15.45;;
60054;SDS011;45930;53.514;55.904;2022-09-03T06:48:00;16.17;;;14.13;;
60054;SDS011;45930;53.514;55.904;2022-09-03T06:49:01;15.88;;;13.73;;
60054;SDS011;45930;53.514;55.904;2022-09-03T06:50:02;17.08;;;15.13;;
60054;SDS011;45930;53.514;55.904;2022-09-03T06:51:05;15.65;;;12.75;;
60054;SDS011;45930;53.514;55.904;2022-09-03T06:52:10;14.23;;;11.65;;
60054;SDS011;45930;53.514;55.904;2022-09-03T06:53:11;16.17;;;10.93;;
60054;SDS011;45930;53.514;55.904;2022-09-03T06:54:12;10.88;;;9.18;;
60054;SDS011;45930;53.514;55.904;2022-09-03T06:55:15;12.52;;;9.88;;
60054;SDS011;45930;53.514;55.904;2022-09-03T06:56:16;13.35;;;10.18;;
60054;SDS011;45930;53.514;55.904;2022-09-03T06:57:25;12.10;;;8.75;;
60054;SDS011;45930;53.514;55.904;2022-09-03T06:58:30;12.20;;;9.45;;
60054;SDS011;45930;53.514;55.904;2022-09-03T06:59:32;10.55;;;9.38;;
60054;SDS011;45930;53.514;55.904;2022-09-03T07:00:33;13.00;;;10.32;;
60054;SDS011;45930;53.514;55.904;2022-09-03T07:01:34;16.35;;;10.85;;
60054;SDS011;45930;53.514;55.904;2022-09-03T07:02:39;15.50;;;10.38;;
60054;SDS011;45930;53.514;55.904;2022-09-03T07:03:41;13.30;;;11.68;;
60054;SDS011;45930;53.514;55.904;2022-09-03T07:04:43;14.18;;;11.15;;
60054;SDS011;45930;53.514;55.904;2022-09-03T07:05:44;13.93;;;11.10;;
60054;SDS011;45930;53.514;55.904;2022-09-03T07:06:45;17.20;;;11.02;;
60054;SDS011;45930;53.514;55.904;2022-09-03T07:07:46;15.30;;;11.32;;
60054;SDS011;45930;53.514;55.904;2022-09-03T07:08:47;13.82;;;11.52;;
60054;SDS011;45930;53.514;55.904;2022-09-03T07:09:48;13.63;;;12.23;;
60054;SDS011;45930;53.514;55.904;2022-09-03T07:10:48;14.48;;;11.45;;
60054;SDS011;45930;53.514;55.904;2022-09-03T07:11:50;15.07;;;11.10;;
60054;SDS011;45930;53.514;55.904;2022-09-03T07:12:52;17.15;;;11.95;;
60054;SDS011;45930;53.514;55.904;2022-09-03T07:13:55;13.80;;;11.77;;
60054;SDS011;45930;53.514;55.904;2022-09-03T07:14:57;16.13;;;12.10;;